WetterOnline ( http://www.wetteronline.de )

Wetter aktuell Homburg

Aktuelles Wetter: Tholey (398m)

6-stündlich | Neueste Meldungen
Ortszeit Temperatur Wetter
Sa, 18.08. 8:00 14.4° C leicht bewölkt
Sa, 18.08. 2:00 16.4° C bewölkt
Fr, 17.08. 20:00 20.4° C wolkenlos
Fr, 17.08. 14:00 25.6° C bewölkt
Fr, 17.08. 8:00 17.5° C wolkig
Fr, 17.08. 2:00 19.4° C leicht bewölkt
Do, 16.08. 20:00 26.6° C wolkenlos
Do, 16.08. 14:00 25.7° C leicht bewölkt
Ortszeit Temperatur Wetter
Sa, 18.08. 8:00 14.4° C leicht bewölkt
Sa, 18.08. 7:50 14.4° C leicht bewölkt
Sa, 18.08. 7:40 14.2° C fast wolkenlos
Sa, 18.08. 7:30 13.8° C fast wolkenlos
Sa, 18.08. 7:20 13.8° C fast wolkenlos
Sa, 18.08. 7:10 13.4° C leicht bewölkt
Sa, 18.08. 7:00 13.0° C wolkig
Sa, 18.08. 6:30 13.4° C leicht bewölkt
Sa, 18.08. 6:00 13.3° C wolkenlos
Sa, 18.08. 5:30 14.7° C leicht bewölkt
Sa, 18.08. 5:00 14.6° C leicht bewölkt
Ortszeit Relative Feuchte Sichtweite
Sa, 18.08. 8:00 80% 19 km
Sa, 18.08. 2:00 73% 28 km
Fr, 17.08. 20:00 68% 29 km
Fr, 17.08. 14:00 49% 23 km
Fr, 17.08. 8:00 73% 30 km
Fr, 17.08. 2:00 62% 40 km
Do, 16.08. 20:00 40% 55 km
Do, 16.08. 14:00 43% 30 km
Ortszeit Relative Feuchte Sichtweite
Sa, 18.08. 8:00 80% 19 km
Sa, 18.08. 7:50 80% -
Sa, 18.08. 7:40 84% -
Sa, 18.08. 7:30 82% 15 km
Sa, 18.08. 7:20 82% -
Sa, 18.08. 7:10 85% -
Sa, 18.08. 7:00 86% 14 km
Sa, 18.08. 6:30 82% 17 km
Sa, 18.08. 6:00 83% 17 km
Sa, 18.08. 5:30 75% 19 km
Sa, 18.08. 5:00 76% 19 km
Ortszeit Niederschlagsmenge Niederschlagsart
Sa, 18.08. 8:00 0.0 l/m2 in 12 Std. -
Sa, 18.08. 2:00 0.0 l/m2 in 6 Std. -
Fr, 17.08. 20:00 0.0 l/m2 in 12 Std. -
Fr, 17.08. 14:00 0.0 l/m2 in 6 Std. -
Fr, 17.08. 8:00 0.0 l/m2 in 12 Std. -
Fr, 17.08. 2:00 0.0 l/m2 in 6 Std. -
Do, 16.08. 20:00 0.0 l/m2 in 12 Std. -
Do, 16.08. 14:00 0.0 l/m2 in 6 Std. -
Ortszeit Niederschlagsmenge Niederschlagsart
Sa, 18.08. 8:00 0.0 l/m2 in 1 Std. -
Sa, 18.08. 7:50 keine Meldung -
Sa, 18.08. 7:40 keine Meldung -
Sa, 18.08. 7:30 0.0 l/m2 in 1 Std. -
Sa, 18.08. 7:20 keine Meldung -
Sa, 18.08. 7:10 keine Meldung -
Sa, 18.08. 7:00 0.0 l/m2 in 1 Std. -
Sa, 18.08. 6:30 0.0 l/m2 in 1 Std. -
Sa, 18.08. 6:00 0.0 l/m2 in 1 Std. -
Sa, 18.08. 5:30 0.0 l/m2 in 1 Std. -
Sa, 18.08. 5:00 0.0 l/m2 in 1 Std. -
Ortszeit Stärke Spitze Richtung
km/h Bft. km/h Grad Sektor
Sa, 18.08. 8:00 4 1 14 140° SO
Sa, 18.08. 2:00 4 1 29 30° NO
Fr, 17.08. 20:00 11 2 43 360° N
Fr, 17.08. 14:00 7 2 32 160° S
Fr, 17.08. 8:00 4 1 11 90° O
Fr, 17.08. 2:00 7 2 11 70° O
Do, 16.08. 20:00 4 1 18 290° W
Do, 16.08. 14:00 11 2 18 260° W
Ortszeit Stärke Spitze Richtung
km/h Bft. km/h Grad Sektor
Sa, 18.08. 8:00 4 1 7 140° SO
Sa, 18.08. 7:50 4 1 - 140° SO
Sa, 18.08. 7:40 4 1 - 160° S
Sa, 18.08. 7:30 4 1 7 160° S
Sa, 18.08. 7:20 4 1 - 160° S
Sa, 18.08. 7:10 4 1 - 120° SO
Sa, 18.08. 7:00 4 1 7 100° O
Sa, 18.08. 6:30 4 1 7 70° O
Sa, 18.08. 6:00 4 1 14 130° SO
Sa, 18.08. 5:30 6 1 15 340° N
Sa, 18.08. 5:00 6 1 13 310° NW
Ortszeit Untergrenze Bedeckung Gattung
total tief tief mittel hoch
Sa, 18.08. 8:00 10500 m 5/8 0/8 - - -
Sa, 18.08. 2:00 1500 m 7/8 6/8 - - -
Fr, 17.08. 20:00 - 0/8 0/8 - - -
Fr, 17.08. 14:00 2100 m 7/8 7/8 - - -
Fr, 17.08. 8:00 8700 m 8/8 0/8 - - -
Fr, 17.08. 2:00 8700 m 5/8 0/8 - - -
Do, 16.08. 20:00 - 0/8 0/8 - - -
Do, 16.08. 14:00 10500 m 7/8 0/8 - - -
Ortszeit Bedeckungsgrad in Achtel und Wolkenuntergrenze
Sa, 18.08. 8:00 5(10500m)
Sa, 18.08. 7:50 5(10500m)
Sa, 18.08. 7:40 1(10500m)
Sa, 18.08. 7:30 1(3600m)
Sa, 18.08. 7:20 1(3600m)
Sa, 18.08. 7:10 1(3600m) 3(10500m)
Sa, 18.08. 7:00 7(10500m) 4(10500m)
Sa, 18.08. 6:30 4(10500m)
Sa, 18.08. 6:00 keine Wolken
Sa, 18.08. 5:30 1(3900m) 4(10500m)
Sa, 18.08. 5:00 2(3600m) 4(9000m) 5(10500m)
Ortszeit Luftdruck NN (hPa) Tendenz (hPa in 3 Std.)
Sa, 18.08. 8:00 1023 + 0,8
Sa, 18.08. 2:00 1021 + 1,1
Fr, 17.08. 20:00 1018 + 1,7
Fr, 17.08. 14:00 1015 0,0
Fr, 17.08. 8:00 1014 + 1,2
Fr, 17.08. 2:00 1013 - 0,2
Do, 16.08. 20:00 1012 - 1,2
Do, 16.08. 14:00 1015 - 1,2
Ortszeit Luftdruck NN (hPa) Tendenz (hPa in 3 Std.)
Sa, 18.08. 8:00 1023 + 0,8
Sa, 18.08. 7:50 1023 keine Meldung
Sa, 18.08. 7:40 1023 keine Meldung
Sa, 18.08. 7:30 1023 + 0,7
Sa, 18.08. 7:20 1023 keine Meldung
Sa, 18.08. 7:10 1023 keine Meldung
Sa, 18.08. 7:00 1023 + 0,5
Sa, 18.08. 6:30 1022 + 0,4
Sa, 18.08. 6:00 1022 + 0,3
Sa, 18.08. 5:30 1022 + 0,1
Sa, 18.08. 5:00 1022 + 0,2
Ortszeit Schneehöhe (cm)
Sa, 18.08. 8:00 -
Sa, 18.08. 2:00 -
Fr, 17.08. 20:00 -
Fr, 17.08. 14:00 -
Fr, 17.08. 8:00 -
Fr, 17.08. 2:00 -
Do, 16.08. 20:00 -
Do, 16.08. 14:00 -
Ortszeit Schneehöhe (cm)
Sa, 18.08. 8:00 -
Sa, 18.08. 7:50 -
Sa, 18.08. 7:40 -
Sa, 18.08. 7:30 -
Sa, 18.08. 7:20 -
Sa, 18.08. 7:10 -
Sa, 18.08. 7:00 -
Sa, 18.08. 6:30 -
Sa, 18.08. 6:00 -
Sa, 18.08. 5:30 -
Sa, 18.08. 5:00 -
Link zu dieser Seite / Seite empfehlen

Das Wetter in ...